PWSweather.com
Personal Weather Stations
Station Observations
WD4JKH
Forsyth, GA 31029

Forsyth, GA 31029

Lat: 33.033225, Lon: -83.927995

Elevation: 709

Station Type: Davis Vantage VUE

High Low Average
Temperature 67.4°F19.7°C 59.4°F15.2°C 62.5°F16.9°C
Dew Point 62.1°F16.7°C 58.8°F14.9°C 60.5°F15.8°C
Winds 7.3 mph 11.7 kmh Calm Calm 3.0 mph SW4.8 kmh SW
Wind Gusts 16.0 mph25.7 kmh 2.0 mph3.2 kmh 8.0 mph12.9 kmh
Humidity 99% 81% 94%
Pressure 30.06 in1017.9 mb 29.98 in1015.2 mb -
Precipitation 0.32 in8.1 mm - -
Hour Temp Dew Point Humidity Winds Wind Gusts Pressure Precip Precip Rate Daily Precip Total
12:02 AM 59.4°F15.2°C 58.8°F14.9°C 98% 1.4 mph SW2.3 kmh SW 5.0 mph8.0 kmh 30.05 in1017.6 mb 0.00 in0.0 mm 0.00 in0.0 mm 0.32 in8.1 mm
12:07 AM 59.4°F15.2°C 58.8°F14.9°C 98% 1.8 mph SW2.9 kmh SW 5.0 mph8.0 kmh 30.05 in1017.6 mb 0.00 in0.0 mm 0.00 in0.0 mm 0.32 in8.1 mm
12:12 AM 59.4°F15.2°C 58.8°F14.9°C 98% 1.1 mph SW1.8 kmh SW 4.0 mph6.4 kmh 30.05 in1017.6 mb 0.00 in0.0 mm 0.00 in0.0 mm 0.32 in8.1 mm
12:17 AM 59.5°F15.3°C 58.9°F14.9°C 98% Calm Calm 4.0 mph6.4 kmh 30.05 in1017.6 mb 0.00 in0.0 mm 0.00 in0.0 mm 0.32 in8.1 mm
12:22 AM 59.5°F15.3°C 58.9°F14.9°C 98% 1.5 mph SW2.4 kmh SW 4.0 mph6.4 kmh 30.04 in1017.3 mb 0.00 in0.0 mm 0.00 in0.0 mm 0.32 in8.1 mm
12:27 AM 59.5°F15.3°C 58.9°F14.9°C 98% 1.1 mph SW1.8 kmh SW 4.0 mph6.4 kmh 30.04 in1017.3 mb 0.00 in0.0 mm 0.00 in0.0 mm 0.32 in8.1 mm
12:32 AM 59.4°F15.2°C 58.8°F14.9°C 98% 1.2 mph SSW1.9 kmh SSW 4.0 mph6.4 kmh 30.04 in1017.3 mb 0.00 in0.0 mm 0.00 in0.0 mm 0.32 in8.1 mm
12:37 AM 59.4°F15.2°C 58.8°F14.9°C 98% 1.9 mph SSW3.1 kmh SSW 3.0 mph4.8 kmh 30.04 in1017.3 mb 0.00 in0.0 mm 0.00 in0.0 mm 0.32 in8.1 mm
12:42 AM 59.5°F15.3°C 58.9°F14.9°C 98% 2.1 mph SW3.4 kmh SW 5.0 mph8.0 kmh 30.04 in1017.3 mb 0.00 in0.0 mm 0.00 in0.0 mm 0.32 in8.1 mm
12:47 AM 59.5°F15.3°C 58.9°F14.9°C 98% 1.7 mph SW2.7 kmh SW 5.0 mph8.0 kmh 30.03 in1016.9 mb 0.00 in0.0 mm 0.00 in0.0 mm 0.32 in8.1 mm
12:52 AM 59.5°F15.3°C 58.9°F14.9°C 98% 1.3 mph SW2.1 kmh SW 5.0 mph8.0 kmh 30.04 in1017.3 mb 0.00 in0.0 mm 0.00 in0.0 mm 0.32 in8.1 mm
12:57 AM 59.4°F15.2°C 58.8°F14.9°C 98% 1.3 mph SW2.1 kmh SW 5.0 mph8.0 kmh 30.04 in1017.3 mb 0.00 in0.0 mm 0.00 in0.0 mm 0.32 in8.1 mm
01:02 AM 59.4°F15.2°C 58.8°F14.9°C 98% 1.5 mph SW2.4 kmh SW 4.0 mph6.4 kmh 30.04 in1017.3 mb 0.00 in0.0 mm 0.00 in0.0 mm 0.32 in8.1 mm
01:07 AM 59.4°F15.2°C 58.8°F14.9°C 98% 1.4 mph SW2.3 kmh SW 4.0 mph6.4 kmh 30.04 in1017.3 mb 0.00 in0.0 mm 0.00 in0.0 mm 0.00 in0.0 mm
01:12 AM 59.4°F15.2°C 58.8°F14.9°C 98% 1.8 mph SW2.9 kmh SW 4.0 mph6.4 kmh 30.04 in1017.3 mb 0.00 in0.0 mm 0.00 in0.0 mm 0.00 in0.0 mm
01:17 AM 59.5°F15.3°C 58.9°F14.9°C 98% 1.5 mph SW2.4 kmh SW 4.0 mph6.4 kmh 30.04 in1017.3 mb 0.00 in0.0 mm 0.00 in0.0 mm 0.00 in0.0 mm
01:22 AM 59.5°F15.3°C 58.9°F14.9°C 98% 1.8 mph SW2.9 kmh SW 3.0 mph4.8 kmh 30.03 in1016.9 mb 0.00 in0.0 mm 0.00 in0.0 mm 0.00 in0.0 mm
01:27 AM 59.6°F15.3°C 59.0°F15.0°C 98% 2.1 mph SW3.4 kmh SW 4.0 mph6.4 kmh 30.03 in1016.9 mb 0.00 in0.0 mm 0.00 in0.0 mm 0.00 in0.0 mm
01:32 AM 59.6°F15.3°C 59.0°F15.0°C 98% 2.1 mph SW3.4 kmh SW 4.0 mph6.4 kmh 30.03 in1016.9 mb 0.00 in0.0 mm 0.00 in0.0 mm 0.00 in0.0 mm
01:37 AM 59.6°F15.3°C 59.0°F15.0°C 98% 1.8 mph SSW2.9 kmh SSW 4.0 mph6.4 kmh 30.03 in1016.9 mb 0.00 in0.0 mm 0.00 in0.0 mm 0.00 in0.0 mm
01:42 AM 59.6°F15.3°C 59.0°F15.0°C 98% 1.7 mph WSW2.7 kmh WSW 4.0 mph6.4 kmh 30.03 in1016.9 mb 0.00 in0.0 mm 0.00 in0.0 mm 0.00 in0.0 mm
01:47 AM 59.7°F15.4°C 59.1°F15.1°C 98% 1.8 mph SW2.9 kmh SW 4.0 mph6.4 kmh 30.03 in1016.9 mb 0.00 in0.0 mm 0.00 in0.0 mm 0.00 in0.0 mm
01:52 AM 59.6°F15.3°C 59.0°F15.0°C 98% 1.9 mph SW3.1 kmh SW 4.0 mph6.4 kmh 30.03 in1016.9 mb 0.00 in0.0 mm 0.00 in0.0 mm 0.00 in0.0 mm
01:57 AM 59.6°F15.3°C 59.0°F15.0°C 98% 1.3 mph SW2.1 kmh SW 4.0 mph6.4 kmh 30.03 in1016.9 mb 0.00 in0.0 mm 0.00 in0.0 mm 0.00 in0.0 mm
02:02 AM 59.4°F15.2°C 58.8°F14.9°C 98% 1.3 mph SW2.1 kmh SW 4.0 mph6.4 kmh 30.03 in1016.9 mb 0.00 in0.0 mm 0.00 in0.0 mm 0.00 in0.0 mm
02:07 AM 59.4°F15.2°C 58.8°F14.9°C 98% 1.2 mph SW1.9 kmh SW 4.0 mph6.4 kmh 30.02 in1016.6 mb 0.00 in0.0 mm 0.00 in0.0 mm 0.00 in0.0 mm
02:12 AM 59.5°F15.3°C 58.9°F14.9°C 98% 1.5 mph SW2.4 kmh SW 4.0 mph6.4 kmh 30.02 in1016.6 mb 0.00 in0.0 mm 0.00 in0.0 mm 0.00 in0.0 mm
02:17 AM 59.5°F15.3°C 58.9°F14.9°C 98% 2.3 mph SSW3.7 kmh SSW 6.0 mph9.7 kmh 30.02 in1016.6 mb 0.00 in0.0 mm 0.00 in0.0 mm 0.00 in0.0 mm
02:22 AM 59.6°F15.3°C 59.0°F15.0°C 98% 2.7 mph SSW4.3 kmh SSW 6.0 mph9.7 kmh 30.02 in1016.6 mb 0.00 in0.0 mm 0.00 in0.0 mm 0.00 in0.0 mm
02:27 AM 59.6°F15.3°C 59.0°F15.0°C 98% 2.4 mph SW3.9 kmh SW 6.0 mph9.7 kmh 30.03 in1016.9 mb 0.00 in0.0 mm 0.00 in0.0 mm 0.00 in0.0 mm
02:32 AM 59.7°F15.4°C 59.1°F15.1°C 98% 2.2 mph SW3.5 kmh SW 6.0 mph9.7 kmh 30.03 in1016.9 mb 0.00 in0.0 mm 0.00 in0.0 mm 0.00 in0.0 mm
02:36 AM 59.7°F15.4°C 59.1°F15.1°C 98% 2.4 mph SW3.9 kmh SW 7.0 mph11.3 kmh 30.03 in1016.9 mb 0.00 in0.0 mm 0.00 in0.0 mm 0.00 in0.0 mm
02:41 AM 59.8°F15.4°C 59.2°F15.1°C 98% 2.2 mph SSW3.5 kmh SSW 7.0 mph11.3 kmh 30.03 in1016.9 mb 0.00 in0.0 mm 0.00 in0.0 mm 0.00 in0.0 mm
02:46 AM 59.9°F15.5°C 59.3°F15.2°C 98% 1.4 mph SW2.3 kmh SW 7.0 mph11.3 kmh 30.03 in1016.9 mb 0.00 in0.0 mm 0.00 in0.0 mm 0.00 in0.0 mm
02:51 AM 59.9°F15.5°C 59.3°F15.2°C 98% 1.4 mph SW2.3 kmh SW 7.0 mph11.3 kmh 30.03 in1016.9 mb 0.00 in0.0 mm 0.00 in0.0 mm 0.00 in0.0 mm
02:56 AM 60.0°F15.6°C 59.4°F15.2°C 98% 2.1 mph SSW3.4 kmh SSW 6.0 mph9.7 kmh 30.03 in1016.9 mb 0.00 in0.0 mm 0.00 in0.0 mm 0.00 in0.0 mm
03:01 AM 60.1°F15.6°C 59.5°F15.3°C 98% 2.0 mph SW3.2 kmh SW 6.0 mph9.7 kmh 30.03 in1016.9 mb 0.00 in0.0 mm 0.00 in0.0 mm 0.00 in0.0 mm
03:06 AM 60.3°F15.7°C 60.0°F15.6°C 99% 2.9 mph SW4.7 kmh SW 7.0 mph11.3 kmh 30.03 in1016.9 mb 0.00 in0.0 mm 0.00 in0.0 mm 0.00 in0.0 mm
03:11 AM 60.4°F15.8°C 60.1°F15.6°C 99% 2.0 mph SW3.2 kmh SW 7.0 mph11.3 kmh 30.02 in1016.6 mb 0.00 in0.0 mm 0.00 in0.0 mm 0.00 in0.0 mm
03:16 AM 60.5°F15.8°C 60.2°F15.7°C 99% 2.0 mph SW3.2 kmh SW 7.0 mph11.3 kmh 30.03 in1016.9 mb 0.00 in0.0 mm 0.00 in0.0 mm 0.00 in0.0 mm
03:21 AM 60.6°F15.9°C 60.3°F15.7°C 99% 1.7 mph SW2.7 kmh SW 7.0 mph11.3 kmh 30.02 in1016.6 mb 0.00 in0.0 mm 0.00 in0.0 mm 0.00 in0.0 mm
03:26 AM 60.7°F15.9°C 60.4°F15.8°C 99% 1.8 mph SW2.9 kmh SW 4.0 mph6.4 kmh 30.02 in1016.6 mb 0.00 in0.0 mm 0.00 in0.0 mm 0.00 in0.0 mm
03:31 AM 60.7°F15.9°C 60.4°F15.8°C 99% 1.7 mph SW2.7 kmh SW 4.0 mph6.4 kmh 30.02 in1016.6 mb 0.00 in0.0 mm 0.00 in0.0 mm 0.00 in0.0 mm
03:36 AM 60.8°F16.0°C 60.5°F15.8°C 99% 1.7 mph SW2.7 kmh SW 3.0 mph4.8 kmh 30.02 in1016.6 mb 0.00 in0.0 mm 0.00 in0.0 mm 0.00 in0.0 mm
03:41 AM 60.8°F16.0°C 60.5°F15.8°C 99% 1.8 mph SW2.9 kmh SW 3.0 mph4.8 kmh 30.01 in1016.3 mb 0.00 in0.0 mm 0.00 in0.0 mm 0.00 in0.0 mm
03:46 AM 60.9°F16.1°C 60.6°F15.9°C 99% 3.8 mph SW6.1 kmh SW 7.0 mph11.3 kmh 30.01 in1016.3 mb 0.01 in0.3 mm 0.12 in3.0 mm 0.01 in0.3 mm
03:51 AM 61.0°F16.1°C 60.7°F15.9°C 99% 2.4 mph SW3.9 kmh SW 7.0 mph11.3 kmh 30.01 in1016.3 mb 0.01 in0.3 mm 0.00 in0.0 mm 0.01 in0.3 mm
03:56 AM 61.1°F16.2°C 60.8°F16.0°C 99% 3.6 mph SW5.8 kmh SW 8.0 mph12.9 kmh 30.01 in1016.3 mb 0.01 in0.3 mm 0.00 in0.0 mm 0.01 in0.3 mm
04:01 AM 61.1°F16.2°C 60.8°F16.0°C 99% 2.7 mph SW4.3 kmh SW 8.0 mph12.9 kmh 30.01 in1016.3 mb 0.01 in0.3 mm 0.00 in0.0 mm 0.01 in0.3 mm
04:06 AM 61.2°F16.2°C 60.9°F16.1°C 99% 4.0 mph SW6.4 kmh SW 8.0 mph12.9 kmh 30.01 in1016.3 mb 0.01 in0.3 mm 0.00 in0.0 mm 0.01 in0.3 mm
04:11 AM 61.3°F16.3°C 61.0°F16.1°C 99% 1.6 mph SW2.6 kmh SW 9.0 mph14.5 kmh 30.01 in1016.3 mb 0.01 in0.3 mm 0.00 in0.0 mm 0.01 in0.3 mm
04:16 AM 61.3°F16.3°C 61.0°F16.1°C 99% 3.4 mph SW5.5 kmh SW 9.0 mph14.5 kmh 30.01 in1016.3 mb 0.01 in0.3 mm 0.00 in0.0 mm 0.01 in0.3 mm
04:21 AM 61.3°F16.3°C 61.0°F16.1°C 99% 2.4 mph SW3.9 kmh SW 9.0 mph14.5 kmh 30.01 in1016.3 mb 0.01 in0.3 mm 0.00 in0.0 mm 0.01 in0.3 mm
04:26 AM 61.3°F16.3°C 61.0°F16.1°C 99% 1.6 mph WSW2.6 kmh WSW 7.0 mph11.3 kmh 30.01 in1016.3 mb 0.01 in0.3 mm 0.00 in0.0 mm 0.01 in0.3 mm
04:31 AM 61.4°F16.3°C 61.1°F16.2°C 99% 2.6 mph WSW4.2 kmh WSW 7.0 mph11.3 kmh 30.01 in1016.3 mb 0.01 in0.3 mm 0.00 in0.0 mm 0.01 in0.3 mm
04:36 AM 61.4°F16.3°C 61.1°F16.2°C 99% 1.4 mph SW2.3 kmh SW 5.0 mph8.0 kmh 30.01 in1016.3 mb 0.01 in0.3 mm 0.00 in0.0 mm 0.01 in0.3 mm
04:41 AM 61.5°F16.4°C 61.2°F16.2°C 99% 2.4 mph SW3.9 kmh SW 5.0 mph8.0 kmh 30.01 in1016.3 mb 0.01 in0.3 mm 0.00 in0.0 mm 0.01 in0.3 mm
04:46 AM 61.6°F16.4°C 61.3°F16.3°C 99% 1.9 mph SW3.1 kmh SW 5.0 mph8.0 kmh 30.01 in1016.3 mb 0.00 in0.0 mm 0.00 in0.0 mm 0.01 in0.3 mm
04:51 AM 61.5°F16.4°C 61.2°F16.2°C 99% 1.9 mph WSW3.1 kmh WSW 5.0 mph8.0 kmh 30.01 in1016.3 mb 0.00 in0.0 mm 0.00 in0.0 mm 0.01 in0.3 mm
04:56 AM 61.6°F16.4°C 61.3°F16.3°C 99% 1.9 mph SW3.1 kmh SW 5.0 mph8.0 kmh 30.01 in1016.3 mb 0.00 in0.0 mm 0.00 in0.0 mm 0.01 in0.3 mm
05:01 AM 61.6°F16.4°C 61.3°F16.3°C 99% 2.6 mph SW4.2 kmh SW 6.0 mph9.7 kmh 30.01 in1016.3 mb 0.00 in0.0 mm 0.00 in0.0 mm 0.01 in0.3 mm
05:06 AM 61.7°F16.5°C 61.4°F16.3°C 99% 3.9 mph SW6.3 kmh SW 8.0 mph12.9 kmh 30.01 in1016.3 mb 0.00 in0.0 mm 0.00 in0.0 mm 0.01 in0.3 mm
05:11 AM 61.7°F16.5°C 61.4°F16.3°C 99% 2.7 mph SW4.3 kmh SW 8.0 mph12.9 kmh 30.01 in1016.3 mb 0.00 in0.0 mm 0.00 in0.0 mm 0.01 in0.3 mm
05:16 AM 61.7°F16.5°C 61.4°F16.3°C 99% 2.5 mph WSW4.0 kmh WSW 8.0 mph12.9 kmh 30.01 in1016.3 mb 0.00 in0.0 mm 0.00 in0.0 mm 0.01 in0.3 mm
05:21 AM 61.8°F16.6°C 61.5°F16.4°C 99% 1.2 mph SW1.9 kmh SW 8.0 mph12.9 kmh 30.01 in1016.3 mb 0.00 in0.0 mm 0.00 in0.0 mm 0.01 in0.3 mm
05:26 AM 61.8°F16.6°C 61.5°F16.4°C 99% 1.6 mph SW2.6 kmh SW 7.0 mph11.3 kmh 30.01 in1016.3 mb 0.00 in0.0 mm 0.00 in0.0 mm 0.01 in0.3 mm
05:31 AM 61.8°F16.6°C 61.5°F16.4°C 99% 3.0 mph SW4.8 kmh SW 7.0 mph11.3 kmh 30.01 in1016.3 mb 0.00 in0.0 mm 0.00 in0.0 mm 0.01 in0.3 mm
05:36 AM 61.8°F16.6°C 61.5°F16.4°C 99% 3.1 mph SW5.0 kmh SW 6.0 mph9.7 kmh 30.01 in1016.3 mb 0.00 in0.0 mm 0.00 in0.0 mm 0.01 in0.3 mm
05:41 AM 61.8°F16.6°C 61.5°F16.4°C 99% 2.2 mph SW3.5 kmh SW 6.0 mph9.7 kmh 30.01 in1016.3 mb 0.00 in0.0 mm 0.00 in0.0 mm 0.01 in0.3 mm
05:46 AM 61.8°F16.6°C 61.5°F16.4°C 99% 1.7 mph SW2.7 kmh SW 6.0 mph9.7 kmh 30.01 in1016.3 mb 0.00 in0.0 mm 0.00 in0.0 mm 0.01 in0.3 mm
05:51 AM 61.9°F16.6°C 61.6°F16.4°C 99% 2.8 mph SW4.5 kmh SW 6.0 mph9.7 kmh 30.01 in1016.3 mb 0.00 in0.0 mm 0.00 in0.0 mm 0.01 in0.3 mm
05:56 AM 61.9°F16.6°C 61.6°F16.4°C 99% 1.5 mph SW2.4 kmh SW 6.0 mph9.7 kmh 30.01 in1016.3 mb 0.00 in0.0 mm 0.00 in0.0 mm 0.01 in0.3 mm
06:01 AM 61.9°F16.6°C 61.6°F16.4°C 99% 3.7 mph SW6.0 kmh SW 7.0 mph11.3 kmh 30.01 in1016.3 mb 0.00 in0.0 mm 0.00 in0.0 mm 0.01 in0.3 mm
06:06 AM 62.0°F16.7°C 61.7°F16.5°C 99% 3.3 mph SW5.3 kmh SW 7.0 mph11.3 kmh 30.01 in1016.3 mb 0.00 in0.0 mm 0.00 in0.0 mm 0.01 in0.3 mm
06:11 AM 61.9°F16.6°C 61.6°F16.4°C 99% 1.6 mph SW2.6 kmh SW 7.0 mph11.3 kmh 30.01 in1016.3 mb 0.00 in0.0 mm 0.00 in0.0 mm 0.01 in0.3 mm
06:16 AM 61.8°F16.6°C 61.5°F16.4°C 99% 2.9 mph SSW4.7 kmh SSW 7.0 mph11.3 kmh 30.01 in1016.3 mb 0.00 in0.0 mm 0.00 in0.0 mm 0.01 in0.3 mm
06:21 AM 61.8°F16.6°C 61.5°F16.4°C 99% 1.9 mph SSW3.1 kmh SSW 7.0 mph11.3 kmh 30.01 in1016.3 mb 0.00 in0.0 mm 0.00 in0.0 mm 0.01 in0.3 mm
06:26 AM 61.7°F16.5°C 61.4°F16.3°C 99% 2.5 mph SSW4.0 kmh SSW 6.0 mph9.7 kmh 30.01 in1016.3 mb 0.00 in0.0 mm 0.00 in0.0 mm 0.01 in0.3 mm
06:31 AM 61.7°F16.5°C 61.4°F16.3°C 99% 2.5 mph SSW4.0 kmh SSW 6.0 mph9.7 kmh 30.01 in1016.3 mb 0.00 in0.0 mm 0.00 in0.0 mm 0.01 in0.3 mm
06:36 AM 61.6°F16.4°C 61.3°F16.3°C 99% 2.0 mph SSW3.2 kmh SSW 6.0 mph9.7 kmh 30.00 in1015.9 mb 0.00 in0.0 mm 0.00 in0.0 mm 0.01 in0.3 mm
06:41 AM 61.6°F16.4°C 61.3°F16.3°C 99% 2.2 mph SW3.5 kmh SW 6.0 mph9.7 kmh 30.00 in1015.9 mb 0.00 in0.0 mm 0.00 in0.0 mm 0.01 in0.3 mm
06:46 AM 61.6°F16.4°C 61.3°F16.3°C 99% 3.3 mph SW5.3 kmh SW 6.0 mph9.7 kmh 30.00 in1015.9 mb 0.00 in0.0 mm 0.00 in0.0 mm 0.01 in0.3 mm
06:51 AM 61.5°F16.4°C 61.2°F16.2°C 99% 2.6 mph SSW4.2 kmh SSW 6.0 mph9.7 kmh 30.00 in1015.9 mb 0.00 in0.0 mm 0.00 in0.0 mm 0.01 in0.3 mm
06:56 AM 61.4°F16.3°C 61.1°F16.2°C 99% 4.0 mph SSW6.4 kmh SSW 10.0 mph16.1 kmh 30.00 in1015.9 mb 0.00 in0.0 mm 0.00 in0.0 mm 0.01 in0.3 mm
07:01 AM 61.3°F16.3°C 61.0°F16.1°C 99% 2.6 mph SW4.2 kmh SW 10.0 mph16.1 kmh 30.00 in1015.9 mb 0.00 in0.0 mm 0.00 in0.0 mm 0.01 in0.3 mm
07:06 AM 61.3°F16.3°C 61.0°F16.1°C 99% 2.9 mph SW4.7 kmh SW 10.0 mph16.1 kmh 30.00 in1015.9 mb 0.00 in0.0 mm 0.00 in0.0 mm 0.01 in0.3 mm
07:11 AM 61.2°F16.2°C 60.9°F16.1°C 99% 2.7 mph SSW4.3 kmh SSW 8.0 mph12.9 kmh 30.00 in1015.9 mb 0.00 in0.0 mm 0.00 in0.0 mm 0.01 in0.3 mm
07:16 AM 61.1°F16.2°C 60.8°F16.0°C 99% 2.9 mph SSW4.7 kmh SSW 6.0 mph9.7 kmh 30.00 in1015.9 mb 0.00 in0.0 mm 0.00 in0.0 mm 0.01 in0.3 mm
07:21 AM 61.0°F16.1°C 60.4°F15.8°C 98% 1.5 mph SW2.4 kmh SW 6.0 mph9.7 kmh 30.00 in1015.9 mb 0.00 in0.0 mm 0.00 in0.0 mm 0.01 in0.3 mm
07:26 AM 60.9°F16.1°C 60.3°F15.7°C 98% 2.1 mph SW3.4 kmh SW 6.0 mph9.7 kmh 30.00 in1015.9 mb 0.00 in0.0 mm 0.00 in0.0 mm 0.01 in0.3 mm
07:31 AM 60.8°F16.0°C 60.2°F15.7°C 98% 2.4 mph SW3.9 kmh SW 6.0 mph9.7 kmh 30.00 in1015.9 mb 0.00 in0.0 mm 0.00 in0.0 mm 0.01 in0.3 mm
07:36 AM 60.7°F15.9°C 60.1°F15.6°C 98% 1.9 mph SW3.1 kmh SW 5.0 mph8.0 kmh 30.00 in1015.9 mb 0.00 in0.0 mm 0.00 in0.0 mm 0.01 in0.3 mm
07:41 AM 60.7°F15.9°C 60.1°F15.6°C 98% 1.7 mph SW2.7 kmh SW 5.0 mph8.0 kmh 30.00 in1015.9 mb 0.00 in0.0 mm 0.00 in0.0 mm 0.01 in0.3 mm
07:46 AM 60.6°F15.9°C 60.0°F15.6°C 98% 1.0 mph SW1.6 kmh SW 5.0 mph8.0 kmh 30.00 in1015.9 mb 0.00 in0.0 mm 0.00 in0.0 mm 0.01 in0.3 mm
07:51 AM 60.6°F15.9°C 60.0°F15.6°C 98% 1.0 mph SW1.6 kmh SW 5.0 mph8.0 kmh 30.00 in1015.9 mb 0.00 in0.0 mm 0.00 in0.0 mm 0.01 in0.3 mm
07:56 AM 60.6°F15.9°C 60.0°F15.6°C 98% 1.4 mph SW2.3 kmh SW 4.0 mph6.4 kmh 30.00 in1015.9 mb 0.00 in0.0 mm 0.00 in0.0 mm 0.01 in0.3 mm
08:01 AM 60.6°F15.9°C 60.0°F15.6°C 98% 1.3 mph WSW2.1 kmh WSW 3.0 mph4.8 kmh 30.00 in1015.9 mb 0.00 in0.0 mm 0.00 in0.0 mm 0.01 in0.3 mm
08:06 AM 60.6°F15.9°C 60.0°F15.6°C 98% 1.0 mph WSW1.6 kmh WSW 3.0 mph4.8 kmh 30.01 in1016.3 mb 0.00 in0.0 mm 0.00 in0.0 mm 0.01 in0.3 mm
08:11 AM 60.6°F15.9°C 60.0°F15.6°C 98% 1.0 mph WSW1.6 kmh WSW 3.0 mph4.8 kmh 30.01 in1016.3 mb 0.01 in0.3 mm 0.12 in3.0 mm 0.02 in0.5 mm
08:16 AM 60.6°F15.9°C 60.0°F15.6°C 98% 1.5 mph SW2.4 kmh SW 3.0 mph4.8 kmh 30.01 in1016.3 mb 0.01 in0.3 mm 0.00 in0.0 mm 0.02 in0.5 mm
08:21 AM 60.7°F15.9°C 60.4°F15.8°C 99% 1.6 mph WSW2.6 kmh WSW 3.0 mph4.8 kmh 30.01 in1016.3 mb 0.01 in0.3 mm 0.00 in0.0 mm 0.02 in0.5 mm
08:26 AM 60.6°F15.9°C 60.0°F15.6°C 98% 1.6 mph WSW2.6 kmh WSW 3.0 mph4.8 kmh 30.02 in1016.6 mb 0.02 in0.5 mm 0.12 in3.0 mm 0.03 in0.8 mm
08:31 AM 60.7°F15.9°C 60.4°F15.8°C 99% 1.0 mph WSW1.6 kmh WSW 3.0 mph4.8 kmh 30.02 in1016.6 mb 0.02 in0.5 mm 0.00 in0.0 mm 0.03 in0.8 mm
08:35 AM 60.7°F15.9°C 60.1°F15.6°C 98% 1.5 mph WSW2.4 kmh WSW 3.0 mph4.8 kmh 30.02 in1016.6 mb 0.03 in0.8 mm 0.15 in3.8 mm 0.04 in1.0 mm
08:40 AM 60.7°F15.9°C 60.1°F15.6°C 98% 1.8 mph WSW2.9 kmh WSW 4.0 mph6.4 kmh 30.02 in1016.6 mb 0.04 in1.0 mm 0.12 in3.0 mm 0.05 in1.3 mm
08:45 AM 60.7°F15.9°C 60.1°F15.6°C 98% 1.0 mph SW1.6 kmh SW 4.0 mph6.4 kmh 30.02 in1016.6 mb 0.04 in1.0 mm 0.00 in0.0 mm 0.05 in1.3 mm
08:50 AM 60.6°F15.9°C 60.0°F15.6°C 98% 1.4 mph SW2.3 kmh SW 4.0 mph6.4 kmh 30.02 in1016.6 mb 0.05 in1.3 mm 0.12 in3.0 mm 0.06 in1.5 mm
08:55 AM 60.6°F15.9°C 60.0°F15.6°C 98% 1.0 mph SW1.6 kmh SW 4.0 mph6.4 kmh 30.02 in1016.6 mb 0.05 in1.3 mm 0.00 in0.0 mm 0.06 in1.5 mm
09:00 AM 60.5°F15.8°C 59.9°F15.5°C 98% 1.5 mph SW2.4 kmh SW 3.0 mph4.8 kmh 30.02 in1016.6 mb 0.05 in1.3 mm 0.00 in0.0 mm 0.06 in1.5 mm
09:05 AM 60.5°F15.8°C 59.9°F15.5°C 98% 1.3 mph SW2.1 kmh SW 3.0 mph4.8 kmh 30.03 in1016.9 mb 0.06 in1.5 mm 0.12 in3.0 mm 0.07 in1.8 mm
09:10 AM 60.4°F15.8°C 59.8°F15.4°C 98% 1.5 mph SW2.4 kmh SW 3.0 mph4.8 kmh 30.03 in1016.9 mb 0.05 in1.3 mm 0.00 in0.0 mm 0.07 in1.8 mm
09:15 AM 60.4°F15.8°C 59.8°F15.4°C 98% 1.7 mph SW2.7 kmh SW 3.0 mph4.8 kmh 30.03 in1016.9 mb 0.05 in1.3 mm 0.00 in0.0 mm 0.07 in1.8 mm
09:20 AM 60.4°F15.8°C 59.8°F15.4°C 98% 1.7 mph SW2.7 kmh SW 5.0 mph8.0 kmh 30.03 in1016.9 mb 0.05 in1.3 mm 0.00 in0.0 mm 0.07 in1.8 mm
09:25 AM 60.3°F15.7°C 59.7°F15.4°C 98% 3.8 mph SW6.1 kmh SW 6.0 mph9.7 kmh 30.04 in1017.3 mb 0.04 in1.0 mm 0.00 in0.0 mm 0.07 in1.8 mm
09:30 AM 60.3°F15.7°C 59.7°F15.4°C 98% 3.2 mph SW5.1 kmh SW 6.0 mph9.7 kmh 30.04 in1017.3 mb 0.04 in1.0 mm 0.00 in0.0 mm 0.07 in1.8 mm
09:35 AM 60.2°F15.7°C 59.6°F15.3°C 98% 2.3 mph SW3.7 kmh SW 6.0 mph9.7 kmh 30.04 in1017.3 mb 0.03 in0.8 mm 0.00 in0.0 mm 0.07 in1.8 mm
09:40 AM 60.2°F15.7°C 59.6°F15.3°C 98% 2.3 mph SW3.7 kmh SW 6.0 mph9.7 kmh 30.04 in1017.3 mb 0.02 in0.5 mm 0.00 in0.0 mm 0.07 in1.8 mm
09:45 AM 60.2°F15.7°C 59.6°F15.3°C 98% 2.7 mph SW4.3 kmh SW 6.0 mph9.7 kmh 30.04 in1017.3 mb 0.02 in0.5 mm 0.00 in0.0 mm 0.07 in1.8 mm
09:50 AM 60.2°F15.7°C 59.6°F15.3°C 98% 2.3 mph SW3.7 kmh SW 7.0 mph11.3 kmh 30.04 in1017.3 mb 0.02 in0.5 mm 0.00 in0.0 mm 0.08 in2.0 mm
09:55 AM 60.2°F15.7°C 59.6°F15.3°C 98% 1.3 mph SW2.1 kmh SW 7.0 mph11.3 kmh 30.04 in1017.3 mb 0.02 in0.5 mm 0.00 in0.0 mm 0.08 in2.0 mm
10:00 AM 60.3°F15.7°C 59.7°F15.4°C 98% 2.1 mph SW3.4 kmh SW 7.0 mph11.3 kmh 30.04 in1017.3 mb 0.02 in0.5 mm 0.00 in0.0 mm 0.08 in2.0 mm
10:05 AM 60.3°F15.7°C 59.7°F15.4°C 98% 2.3 mph SW3.7 kmh SW 7.0 mph11.3 kmh 30.04 in1017.3 mb 0.02 in0.5 mm 0.00 in0.0 mm 0.09 in2.3 mm
10:10 AM 60.3°F15.7°C 59.7°F15.4°C 98% 1.8 mph SW2.9 kmh SW 6.0 mph9.7 kmh 30.04 in1017.3 mb 0.02 in0.5 mm 0.00 in0.0 mm 0.09 in2.3 mm
10:15 AM 60.3°F15.7°C 59.7°F15.4°C 98% 1.2 mph SW1.9 kmh SW 6.0 mph9.7 kmh 30.04 in1017.3 mb 0.02 in0.5 mm 0.00 in0.0 mm 0.09 in2.3 mm
10:20 AM 60.4°F15.8°C 59.8°F15.4°C 98% 1.0 mph SW1.6 kmh SW 6.0 mph9.7 kmh 30.04 in1017.3 mb 0.02 in0.5 mm 0.00 in0.0 mm 0.09 in2.3 mm
10:25 AM 60.4°F15.8°C 59.8°F15.4°C 98% 1.7 mph WSW2.7 kmh WSW 4.0 mph6.4 kmh 30.04 in1017.3 mb 0.03 in0.8 mm 0.12 in3.0 mm 0.10 in2.5 mm
10:30 AM 60.4°F15.8°C 59.8°F15.4°C 98% 1.0 mph WSW1.6 kmh WSW 4.0 mph6.4 kmh 30.04 in1017.3 mb 0.03 in0.8 mm 0.00 in0.0 mm 0.10 in2.5 mm
10:35 AM 60.4°F15.8°C 59.8°F15.4°C 98% 1.7 mph SW2.7 kmh SW 4.0 mph6.4 kmh 30.04 in1017.3 mb 0.04 in1.0 mm 0.12 in3.0 mm 0.11 in2.8 mm
10:40 AM 60.4°F15.8°C 59.8°F15.4°C 98% 1.3 mph SW2.1 kmh SW 4.0 mph6.4 kmh 30.04 in1017.3 mb 0.05 in1.3 mm 0.12 in3.0 mm 0.12 in3.0 mm
10:45 AM 60.4°F15.8°C 59.8°F15.4°C 98% 1.3 mph SW2.1 kmh SW 3.0 mph4.8 kmh 30.04 in1017.3 mb 0.06 in1.5 mm 0.12 in3.0 mm 0.13 in3.3 mm
10:50 AM 60.5°F15.8°C 59.9°F15.5°C 98% Calm Calm 3.0 mph4.8 kmh 30.04 in1017.3 mb 0.05 in1.3 mm 0.00 in0.0 mm 0.13 in3.3 mm
10:55 AM 60.5°F15.8°C 59.9°F15.5°C 98% 1.1 mph SW1.8 kmh SW 3.0 mph4.8 kmh 30.04 in1017.3 mb 0.06 in1.5 mm 0.12 in3.0 mm 0.14 in3.6 mm
11:00 AM 60.5°F15.8°C 59.9°F15.5°C 98% Calm Calm 2.0 mph3.2 kmh 30.04 in1017.3 mb 0.06 in1.5 mm 0.00 in0.0 mm 0.14 in3.6 mm
11:05 AM 60.6°F15.9°C 60.0°F15.6°C 98% 1.0 mph WSW1.6 kmh WSW 2.0 mph3.2 kmh 30.04 in1017.3 mb 0.06 in1.5 mm 0.00 in0.0 mm 0.15 in3.8 mm
11:10 AM 60.6°F15.9°C 60.0°F15.6°C 98% 1.9 mph SW3.1 kmh SW 4.0 mph6.4 kmh 30.04 in1017.3 mb 0.06 in1.5 mm 0.00 in0.0 mm 0.15 in3.8 mm
11:15 AM 60.7°F15.9°C 60.1°F15.6°C 98% 1.0 mph SW1.6 kmh SW 4.0 mph6.4 kmh 30.03 in1016.9 mb 0.06 in1.5 mm 0.00 in0.0 mm 0.15 in3.8 mm
11:20 AM 60.8°F16.0°C 60.2°F15.7°C 98% 1.0 mph SE1.6 kmh SE 4.0 mph6.4 kmh 30.02 in1016.6 mb 0.06 in1.5 mm 0.00 in0.0 mm 0.15 in3.8 mm
11:25 AM 60.9°F16.1°C 60.3°F15.7°C 98% 1.0 mph SE1.6 kmh SE 4.0 mph6.4 kmh 30.02 in1016.6 mb 0.05 in1.3 mm 0.00 in0.0 mm 0.15 in3.8 mm
11:30 AM 60.9°F16.1°C 60.3°F15.7°C 98% 2.1 mph SW3.4 kmh SW 4.0 mph6.4 kmh 30.03 in1016.9 mb 0.05 in1.3 mm 0.00 in0.0 mm 0.15 in3.8 mm
11:35 AM 61.0°F16.1°C 60.4°F15.8°C 98% 1.5 mph SW2.4 kmh SW 5.0 mph8.0 kmh 30.04 in1017.3 mb 0.04 in1.0 mm 0.00 in0.0 mm 0.15 in3.8 mm
11:41 AM 61.0°F16.1°C 60.4°F15.8°C 98% 4.0 mph SW6.4 kmh SW 6.0 mph9.7 kmh 30.04 in1017.3 mb 0.03 in0.8 mm 0.00 in0.0 mm 0.15 in3.8 mm
11:46 AM 61.1°F16.2°C 60.5°F15.8°C 98% 2.7 mph SW4.3 kmh SW 6.0 mph9.7 kmh 30.04 in1017.3 mb 0.02 in0.5 mm 0.00 in0.0 mm 0.15 in3.8 mm
11:50 AM 61.1°F16.2°C 60.5°F15.8°C 98% 3.1 mph SW5.0 kmh SW 8.0 mph12.9 kmh 30.04 in1017.3 mb 0.03 in0.8 mm 0.15 in3.8 mm 0.16 in4.1 mm
11:55 AM 61.1°F16.2°C 60.5°F15.8°C 98% 3.5 mph SSW5.6 kmh SSW 8.0 mph12.9 kmh 30.03 in1016.9 mb 0.02 in0.5 mm 0.00 in0.0 mm 0.16 in4.1 mm
12:01 PM 61.1°F16.2°C 60.5°F15.8°C 98% 2.9 mph SW4.7 kmh SW 8.0 mph12.9 kmh 30.03 in1016.9 mb 0.02 in0.5 mm 0.00 in0.0 mm 0.16 in4.1 mm
12:05 PM 61.0°F16.1°C 60.4°F15.8°C 98% 5.1 mph SW8.2 kmh SW 9.0 mph14.5 kmh 30.03 in1016.9 mb 0.01 in0.3 mm 0.00 in0.0 mm 0.16 in4.1 mm
12:10 PM 61.1°F16.2°C 60.5°F15.8°C 98% 4.3 mph SW6.9 kmh SW 9.0 mph14.5 kmh 30.04 in1017.3 mb 0.01 in0.3 mm 0.00 in0.0 mm 0.16 in4.1 mm
12:16 PM 61.1°F16.2°C 60.5°F15.8°C 98% 2.6 mph SSW4.2 kmh SSW 9.0 mph14.5 kmh 30.03 in1016.9 mb 0.01 in0.3 mm 0.00 in0.0 mm 0.16 in4.1 mm
12:21 PM 61.2°F16.2°C 60.6°F15.9°C 98% 5.7 mph SW9.2 kmh SW 12.0 mph19.3 kmh 30.04 in1017.3 mb 0.01 in0.3 mm 0.00 in0.0 mm 0.16 in4.1 mm
12:26 PM 61.3°F16.3°C 60.7°F15.9°C 98% 3.3 mph SW5.3 kmh SW 12.0 mph19.3 kmh 30.04 in1017.3 mb 0.01 in0.3 mm 0.00 in0.0 mm 0.16 in4.1 mm
12:31 PM 61.4°F16.3°C 60.8°F16.0°C 98% 2.8 mph WSW4.5 kmh WSW 12.0 mph19.3 kmh 30.03 in1016.9 mb 0.01 in0.3 mm 0.00 in0.0 mm 0.16 in4.1 mm
12:36 PM 61.4°F16.3°C 60.8°F16.0°C 98% 6.1 mph WSW9.8 kmh WSW 12.0 mph19.3 kmh 30.03 in1016.9 mb 0.01 in0.3 mm 0.00 in0.0 mm 0.16 in4.1 mm
12:41 PM 61.5°F16.4°C 60.6°F15.9°C 97% 3.2 mph WSW5.1 kmh WSW 11.0 mph17.7 kmh 30.03 in1016.9 mb 0.01 in0.3 mm 0.00 in0.0 mm 0.16 in4.1 mm
12:46 PM 61.6°F16.4°C 60.7°F15.9°C 97% 6.6 mph WSW10.6 kmh WSW 11.0 mph17.7 kmh 30.03 in1016.9 mb 0.01 in0.3 mm 0.00 in0.0 mm 0.16 in4.1 mm
12:51 PM 61.6°F16.4°C 60.7°F15.9°C 97% 2.6 mph SW4.2 kmh SW 11.0 mph17.7 kmh 30.03 in1016.9 mb 0.00 in0.0 mm 0.00 in0.0 mm 0.16 in4.1 mm
12:56 PM 61.8°F16.6°C 60.9°F16.1°C 97% 1.6 mph SW2.6 kmh SW 11.0 mph17.7 kmh 30.03 in1016.9 mb 0.00 in0.0 mm 0.00 in0.0 mm 0.16 in4.1 mm
01:01 PM 61.9°F16.6°C 61.0°F16.1°C 97% 4.9 mph SW7.9 kmh SW 11.0 mph17.7 kmh 30.02 in1016.6 mb 0.00 in0.0 mm 0.00 in0.0 mm 0.16 in4.1 mm
01:06 PM 62.0°F16.7°C 60.8°F16.0°C 96% 5.9 mph WSW9.5 kmh WSW 12.0 mph19.3 kmh 30.02 in1016.6 mb 0.00 in0.0 mm 0.00 in0.0 mm 0.16 in4.1 mm
01:11 PM 62.3°F16.8°C 61.1°F16.2°C 96% 4.4 mph SW7.1 kmh SW 12.0 mph19.3 kmh 30.03 in1016.9 mb 0.00 in0.0 mm 0.00 in0.0 mm 0.16 in4.1 mm
01:16 PM 62.4°F16.9°C 60.9°F16.1°C 95% 4.1 mph WSW6.6 kmh WSW 12.0 mph19.3 kmh 30.03 in1016.9 mb 0.00 in0.0 mm 0.00 in0.0 mm 0.16 in4.1 mm
01:21 PM 62.5°F16.9°C 61.0°F16.1°C 95% 2.1 mph WSW3.4 kmh WSW 12.0 mph19.3 kmh 30.02 in1016.6 mb 0.00 in0.0 mm 0.00 in0.0 mm 0.16 in4.1 mm
01:26 PM 62.5°F16.9°C 61.0°F16.1°C 95% 3.4 mph SW5.5 kmh SW 10.0 mph16.1 kmh 30.02 in1016.6 mb 0.00 in0.0 mm 0.00 in0.0 mm 0.16 in4.1 mm
01:31 PM 62.7°F17.1°C 60.9°F16.1°C 94% 3.9 mph WSW6.3 kmh WSW 10.0 mph16.1 kmh 30.03 in1016.9 mb 0.00 in0.0 mm 0.00 in0.0 mm 0.16 in4.1 mm
01:36 PM 63.0°F17.2°C 61.2°F16.2°C 94% 2.5 mph WSW4.0 kmh WSW 10.0 mph16.1 kmh 30.03 in1016.9 mb 0.00 in0.0 mm 0.00 in0.0 mm 0.16 in4.1 mm
01:41 PM 63.0°F17.2°C 60.9°F16.1°C 93% 3.9 mph WSW6.3 kmh WSW 10.0 mph16.1 kmh 30.03 in1016.9 mb 0.00 in0.0 mm 0.00 in0.0 mm 0.16 in4.1 mm
01:46 PM 63.2°F17.3°C 61.1°F16.2°C 93% 4.5 mph SW7.2 kmh SW 12.0 mph19.3 kmh 30.03 in1016.9 mb 0.00 in0.0 mm 0.00 in0.0 mm 0.16 in4.1 mm
01:51 PM 63.1°F17.3°C 61.0°F16.1°C 93% 4.3 mph SW6.9 kmh SW 12.0 mph19.3 kmh 30.03 in1016.9 mb 0.00 in0.0 mm 0.00 in0.0 mm 0.16 in4.1 mm
01:56 PM 63.2°F17.3°C 61.1°F16.2°C 93% 3.4 mph SW5.5 kmh SW 12.0 mph19.3 kmh 30.03 in1016.9 mb 0.00 in0.0 mm 0.00 in0.0 mm 0.16 in4.1 mm
02:01 PM 63.2°F17.3°C 61.1°F16.2°C 93% 2.4 mph SW3.9 kmh SW 12.0 mph19.3 kmh 30.03 in1016.9 mb 0.00 in0.0 mm 0.00 in0.0 mm 0.16 in4.1 mm
02:06 PM 63.0°F17.2°C 60.6°F15.9°C 92% 3.4 mph SW5.5 kmh SW 11.0 mph17.7 kmh 30.03 in1016.9 mb 0.00 in0.0 mm 0.00 in0.0 mm 0.16 in4.1 mm
02:11 PM 62.9°F17.2°C 60.5°F15.8°C 92% 6.6 mph WSW10.6 kmh WSW 14.0 mph22.5 kmh 30.03 in1016.9 mb 0.00 in0.0 mm 0.00 in0.0 mm 0.16 in4.1 mm
02:16 PM 62.9°F17.2°C 60.5°F15.8°C 92% 5.0 mph WSW8.0 kmh WSW 14.0 mph22.5 kmh 30.03 in1016.9 mb 0.00 in0.0 mm 0.00 in0.0 mm 0.16 in4.1 mm
02:21 PM 63.1°F17.3°C 60.7°F15.9°C 92% 3.9 mph SW6.3 kmh SW 14.0 mph22.5 kmh 30.02 in1016.6 mb 0.00 in0.0 mm 0.00 in0.0 mm 0.16 in4.1 mm
02:26 PM 63.5°F17.5°C 60.8°F16.0°C 91% 2.2 mph SW3.5 kmh SW 14.0 mph22.5 kmh 30.02 in1016.6 mb 0.00 in0.0 mm 0.00 in0.0 mm 0.16 in4.1 mm
02:31 PM 63.8°F17.7°C 60.5°F15.8°C 89% 6.7 mph SW10.8 kmh SW 11.0 mph17.7 kmh 30.01 in1016.3 mb 0.00 in0.0 mm 0.00 in0.0 mm 0.16 in4.1 mm
02:36 PM 64.1°F17.8°C 60.5°F15.8°C 88% 4.8 mph WSW7.7 kmh WSW 11.0 mph17.7 kmh 30.01 in1016.3 mb 0.00 in0.0 mm 0.00 in0.0 mm 0.16 in4.1 mm
02:41 PM 64.4°F18.0°C 60.4°F15.8°C 87% 5.1 mph SW8.2 kmh SW 13.0 mph20.9 kmh 30.01 in1016.3 mb 0.00 in0.0 mm 0.00 in0.0 mm 0.16 in4.1 mm
02:46 PM 64.8°F18.2°C 61.2°F16.2°C 88% 3.1 mph WSW5.0 kmh WSW 13.0 mph20.9 kmh 30.01 in1016.3 mb 0.00 in0.0 mm 0.00 in0.0 mm 0.16 in4.1 mm
02:51 PM 65.1°F18.4°C 61.4°F16.3°C 88% 4.3 mph W6.9 kmh W 13.0 mph20.9 kmh 30.01 in1016.3 mb 0.00 in0.0 mm 0.00 in0.0 mm 0.16 in4.1 mm
02:56 PM 65.1°F18.4°C 61.1°F16.2°C 87% 3.6 mph SW5.8 kmh SW 13.0 mph20.9 kmh 30.01 in1016.3 mb 0.00 in0.0 mm 0.00 in0.0 mm 0.16 in4.1 mm
03:01 PM 65.2°F18.4°C 60.9°F16.1°C 86% 6.2 mph SW10.0 kmh SW 12.0 mph19.3 kmh 30.00 in1015.9 mb 0.00 in0.0 mm 0.00 in0.0 mm 0.16 in4.1 mm
03:06 PM 65.7°F18.7°C 61.7°F16.5°C 87% 3.7 mph SW6.0 kmh SW 12.0 mph19.3 kmh 30.00 in1015.9 mb 0.00 in0.0 mm 0.00 in0.0 mm 0.16 in4.1 mm
03:11 PM 65.9°F18.8°C 61.0°F16.1°C 84% 4.7 mph WSW7.6 kmh WSW 13.0 mph20.9 kmh 30.00 in1015.9 mb 0.00 in0.0 mm 0.00 in0.0 mm 0.16 in4.1 mm
03:16 PM 66.0°F18.9°C 60.7°F15.9°C 83% 7.3 mph WSW11.7 kmh WSW 14.0 mph22.5 kmh 30.00 in1015.9 mb 0.00 in0.0 mm 0.00 in0.0 mm 0.16 in4.1 mm
03:21 PM 66.0°F18.9°C 61.1°F16.2°C 84% 3.5 mph SW5.6 kmh SW 14.0 mph22.5 kmh 30.00 in1015.9 mb 0.00 in0.0 mm 0.00 in0.0 mm 0.16 in4.1 mm
03:26 PM 66.2°F19.0°C 61.2°F16.2°C 84% 3.4 mph SW5.5 kmh SW 14.0 mph22.5 kmh 30.00 in1015.9 mb 0.00 in0.0 mm 0.00 in0.0 mm 0.16 in4.1 mm
03:31 PM 66.7°F19.3°C 61.7°F16.5°C 84% 3.5 mph SSW5.6 kmh SSW 14.0 mph22.5 kmh 29.99 in1015.6 mb 0.00 in0.0 mm 0.00 in0.0 mm 0.16 in4.1 mm
03:35 PM 66.8°F19.3°C 61.2°F16.2°C 82% 5.4 mph SW8.7 kmh SW 15.0 mph24.1 kmh 29.99 in1015.6 mb 0.00 in0.0 mm 0.00 in0.0 mm 0.16 in4.1 mm
03:40 PM 66.6°F19.2°C 61.0°F16.1°C 82% 5.8 mph WSW9.3 kmh WSW 15.0 mph24.1 kmh 29.99 in1015.6 mb 0.00 in0.0 mm 0.00 in0.0 mm 0.16 in4.1 mm
03:45 PM 66.4°F19.1°C 61.1°F16.2°C 83% 5.2 mph SW8.4 kmh SW 15.0 mph24.1 kmh 29.99 in1015.6 mb 0.00 in0.0 mm 0.00 in0.0 mm 0.16 in4.1 mm
03:50 PM 66.3°F19.1°C 60.7°F15.9°C 82% 6.5 mph SW10.5 kmh SW 14.0 mph22.5 kmh 29.99 in1015.6 mb 0.00 in0.0 mm 0.00 in0.0 mm 0.16 in4.1 mm
03:55 PM 66.2°F19.0°C 60.9°F16.1°C 83% 5.8 mph SW9.3 kmh SW 14.0 mph22.5 kmh 29.99 in1015.6 mb 0.00 in0.0 mm 0.00 in0.0 mm 0.16 in4.1 mm
04:00 PM 66.2°F19.0°C 60.9°F16.1°C 83% 6.0 mph SW9.7 kmh SW 14.0 mph22.5 kmh 29.99 in1015.6 mb 0.00 in0.0 mm 0.00 in0.0 mm 0.16 in4.1 mm
04:05 PM 66.0°F18.9°C 60.7°F15.9°C 83% 5.9 mph SW9.5 kmh SW 14.0 mph22.5 kmh 29.99 in1015.6 mb 0.00 in0.0 mm 0.00 in0.0 mm 0.16 in4.1 mm
04:10 PM 66.1°F18.9°C 60.8°F16.0°C 83% 3.7 mph SW6.0 kmh SW 13.0 mph20.9 kmh 29.99 in1015.6 mb 0.00 in0.0 mm 0.00 in0.0 mm 0.16 in4.1 mm
04:15 PM 66.2°F19.0°C 61.3°F16.3°C 84% 2.3 mph SW3.7 kmh SW 13.0 mph20.9 kmh 29.98 in1015.2 mb 0.00 in0.0 mm 0.00 in0.0 mm 0.16 in4.1 mm
04:20 PM 66.3°F19.1°C 61.3°F16.3°C 84% 2.9 mph SSW4.7 kmh SSW 13.0 mph20.9 kmh 29.98 in1015.2 mb 0.00 in0.0 mm 0.00 in0.0 mm 0.16 in4.1 mm
04:25 PM 66.1°F18.9°C 61.2°F16.2°C 84% 4.7 mph SW7.6 kmh SW 10.0 mph16.1 kmh 29.98 in1015.2 mb 0.00 in0.0 mm 0.00 in0.0 mm 0.16 in4.1 mm
04:30 PM 66.0°F18.9°C 61.1°F16.2°C 84% 4.1 mph SW6.6 kmh SW 10.0 mph16.1 kmh 29.98 in1015.2 mb 0.00 in0.0 mm 0.00 in0.0 mm 0.16 in4.1 mm
04:35 PM 66.1°F18.9°C 61.2°F16.2°C 84% 3.8 mph SW6.1 kmh SW 10.0 mph16.1 kmh 29.98 in1015.2 mb 0.00 in0.0 mm 0.00 in0.0 mm 0.16 in4.1 mm
04:40 PM 66.3°F19.1°C 61.3°F16.3°C 84% 3.6 mph SW5.8 kmh SW 10.0 mph16.1 kmh 29.98 in1015.2 mb 0.00 in0.0 mm 0.00 in0.0 mm 0.16 in4.1 mm
04:45 PM 66.6°F19.2°C 61.6°F16.4°C 84% 3.1 mph SW5.0 kmh SW 10.0 mph16.1 kmh 29.98 in1015.2 mb 0.00 in0.0 mm 0.00 in0.0 mm 0.16 in4.1 mm
04:50 PM 66.7°F19.3°C 61.4°F16.3°C 83% 4.2 mph SW6.8 kmh SW 10.0 mph16.1 kmh 29.98 in1015.2 mb 0.00 in0.0 mm 0.00 in0.0 mm 0.16 in4.1 mm
04:55 PM 66.8°F19.3°C 61.2°F16.2°C 82% 3.6 mph SW5.8 kmh SW 9.0 mph14.5 kmh 29.99 in1015.6 mb 0.00 in0.0 mm 0.00 in0.0 mm 0.16 in4.1 mm
05:00 PM 66.8°F19.3°C 61.2°F16.2°C 82% 3.9 mph SW6.3 kmh SW 9.0 mph14.5 kmh 29.99 in1015.6 mb 0.00 in0.0 mm 0.00 in0.0 mm 0.16 in4.1 mm
05:05 PM 66.7°F19.3°C 61.4°F16.3°C 83% 3.0 mph WSW4.8 kmh WSW 11.0 mph17.7 kmh 29.99 in1015.6 mb 0.00 in0.0 mm 0.00 in0.0 mm 0.16 in4.1 mm
05:10 PM 66.7°F19.3°C 61.4°F16.3°C 83% 3.7 mph SW6.0 kmh SW 11.0 mph17.7 kmh 29.99 in1015.6 mb 0.00 in0.0 mm 0.00 in0.0 mm 0.16 in4.1 mm
05:15 PM 66.7°F19.3°C 61.4°F16.3°C 83% 5.9 mph SW9.5 kmh SW 12.0 mph19.3 kmh 30.00 in1015.9 mb 0.00 in0.0 mm 0.00 in0.0 mm 0.16 in4.1 mm
05:20 PM 66.5°F19.2°C 61.2°F16.2°C 83% 3.2 mph WSW5.1 kmh WSW 13.0 mph20.9 kmh 30.00 in1015.9 mb 0.00 in0.0 mm 0.00 in0.0 mm 0.16 in4.1 mm
05:25 PM 66.3°F19.1°C 61.0°F16.1°C 83% 4.9 mph SW7.9 kmh SW 13.0 mph20.9 kmh 30.00 in1015.9 mb 0.00 in0.0 mm 0.00 in0.0 mm 0.16 in4.1 mm
05:30 PM 66.3°F19.1°C 61.3°F16.3°C 84% 2.9 mph SW4.7 kmh SW 13.0 mph20.9 kmh 30.00 in1015.9 mb 0.00 in0.0 mm 0.00 in0.0 mm 0.16 in4.1 mm
05:35 PM 66.3°F19.1°C 61.3°F16.3°C 84% 4.4 mph SW7.1 kmh SW 13.0 mph20.9 kmh 30.00 in1015.9 mb 0.00 in0.0 mm 0.00 in0.0 mm 0.16 in4.1 mm
05:40 PM 66.3°F19.1°C 61.3°F16.3°C 84% 1.9 mph WSW3.1 kmh WSW 12.0 mph19.3 kmh 30.00 in1015.9 mb 0.00 in0.0 mm 0.00 in0.0 mm 0.16 in4.1 mm
05:45 PM 66.4°F19.1°C 61.4°F16.3°C 84% 5.3 mph SW8.5 kmh SW 12.0 mph19.3 kmh 30.00 in1015.9 mb 0.00 in0.0 mm 0.00 in0.0 mm 0.16 in4.1 mm
05:50 PM 66.6°F19.2°C 61.6°F16.4°C 84% 2.9 mph WSW4.7 kmh WSW 12.0 mph19.3 kmh 30.00 in1015.9 mb 0.00 in0.0 mm 0.00 in0.0 mm 0.16 in4.1 mm
05:55 PM 66.8°F19.3°C 61.2°F16.2°C 82% 4.1 mph WSW6.6 kmh WSW 12.0 mph19.3 kmh 30.00 in1015.9 mb 0.00 in0.0 mm 0.00 in0.0 mm 0.16 in4.1 mm
06:00 PM 66.8°F19.3°C 61.2°F16.2°C 82% 4.6 mph SW7.4 kmh SW 16.0 mph25.7 kmh 30.00 in1015.9 mb 0.00 in0.0 mm 0.00 in0.0 mm 0.16 in4.1 mm
06:05 PM 66.8°F19.3°C 61.2°F16.2°C 82% 3.7 mph SW6.0 kmh SW 16.0 mph25.7 kmh 30.00 in1015.9 mb 0.00 in0.0 mm 0.00 in0.0 mm 0.16 in4.1 mm
06:10 PM 67.0°F19.4°C 61.4°F16.3°C 82% 2.0 mph SW3.2 kmh SW 16.0 mph25.7 kmh 30.00 in1015.9 mb 0.00 in0.0 mm 0.00 in0.0 mm 0.16 in4.1 mm
06:15 PM 67.1°F19.5°C 61.1°F16.2°C 81% 5.4 mph WSW8.7 kmh WSW 16.0 mph25.7 kmh 30.00 in1015.9 mb 0.00 in0.0 mm 0.00 in0.0 mm 0.16 in4.1 mm
06:20 PM 67.1°F19.5°C 61.1°F16.2°C 81% 3.9 mph SW6.3 kmh SW 14.0 mph22.5 kmh 30.00 in1015.9 mb 0.00 in0.0 mm 0.00 in0.0 mm 0.16 in4.1 mm
06:25 PM 67.0°F19.4°C 61.4°F16.3°C 82% 2.0 mph WSW3.2 kmh WSW 14.0 mph22.5 kmh 30.00 in1015.9 mb 0.00 in0.0 mm 0.00 in0.0 mm 0.16 in4.1 mm
06:30 PM 67.0°F19.4°C 61.7°F16.5°C 83% 2.1 mph WSW3.4 kmh WSW 14.0 mph22.5 kmh 30.01 in1016.3 mb 0.00 in0.0 mm 0.00 in0.0 mm 0.16 in4.1 mm
06:35 PM 66.9°F19.4°C 61.6°F16.4°C 83% 2.9 mph SW4.7 kmh SW 12.0 mph19.3 kmh 30.00 in1015.9 mb 0.00 in0.0 mm 0.00 in0.0 mm 0.16 in4.1 mm
06:40 PM 66.9°F19.4°C 61.6°F16.4°C 83% 1.8 mph SW2.9 kmh SW 6.0 mph9.7 kmh 30.00 in1015.9 mb 0.00 in0.0 mm 0.00 in0.0 mm 0.16 in4.1 mm
06:45 PM 66.9°F19.4°C 61.6°F16.4°C 83% 4.4 mph SW7.1 kmh SW 9.0 mph14.5 kmh 30.00 in1015.9 mb 0.00 in0.0 mm 0.00 in0.0 mm 0.16 in4.1 mm
06:50 PM 67.3°F19.6°C 62.0°F16.7°C 83% 2.1 mph SW3.4 kmh SW 9.0 mph14.5 kmh 30.00 in1015.9 mb 0.00 in0.0 mm 0.00 in0.0 mm 0.16 in4.1 mm
06:55 PM 67.4°F19.7°C 62.1°F16.7°C 83% 3.6 mph SW5.8 kmh SW 9.0 mph14.5 kmh 30.00 in1015.9 mb 0.00 in0.0 mm 0.00 in0.0 mm 0.16 in4.1 mm
07:00 PM 67.4°F19.7°C 61.8°F16.6°C 82% 6.0 mph SW9.7 kmh SW 10.0 mph16.1 kmh 30.00 in1015.9 mb 0.00 in0.0 mm 0.00 in0.0 mm 0.16 in4.1 mm
07:05 PM 67.4°F19.7°C 61.8°F16.6°C 82% 4.9 mph SW7.9 kmh SW 10.0 mph16.1 kmh 30.00 in1015.9 mb 0.00 in0.0 mm 0.00 in0.0 mm 0.16 in4.1 mm
07:10 PM 67.3°F19.6°C 61.7°F16.5°C 82% 1.9 mph SW3.1 kmh SW 10.0 mph16.1 kmh 30.00 in1015.9 mb 0.00 in0.0 mm 0.00 in0.0 mm 0.16 in4.1 mm
07:15 PM 67.0°F19.4°C 61.4°F16.3°C 82% 4.8 mph WSW7.7 kmh WSW 13.0 mph20.9 kmh 30.00 in1015.9 mb 0.00 in0.0 mm 0.00 in0.0 mm 0.16 in4.1 mm
07:20 PM 66.7°F19.3°C 61.4°F16.3°C 83% 4.6 mph WSW7.4 kmh WSW 13.0 mph20.9 kmh 30.01 in1016.3 mb 0.00 in0.0 mm 0.00 in0.0 mm 0.16 in4.1 mm
07:25 PM 66.3°F19.1°C 61.0°F16.1°C 83% 4.8 mph SW7.7 kmh SW 13.0 mph20.9 kmh 30.00 in1015.9 mb 0.00 in0.0 mm 0.00 in0.0 mm 0.16 in4.1 mm
07:30 PM 66.0°F18.9°C 61.0°F16.1°C 84% 3.7 mph SW6.0 kmh SW 13.0 mph20.9 kmh 30.01 in1016.3 mb 0.00 in0.0 mm 0.00 in0.0 mm 0.16 in4.1 mm
07:35 PM 65.7°F18.7°C 60.7°F15.9°C 84% 4.1 mph SW6.6 kmh SW 11.0 mph17.7 kmh 30.01 in1016.3 mb 0.00 in0.0 mm 0.00 in0.0 mm 0.16 in4.1 mm
07:40 PM 65.5°F18.6°C 60.9°F16.1°C 85% 3.1 mph SW5.0 kmh SW 9.0 mph14.5 kmh 30.01 in1016.3 mb 0.00 in0.0 mm 0.00 in0.0 mm 0.16 in4.1 mm
07:45 PM 65.3°F18.5°C 61.0°F16.1°C 86% 3.8 mph SW6.1 kmh SW 9.0 mph14.5 kmh 30.01 in1016.3 mb 0.00 in0.0 mm 0.00 in0.0 mm 0.16 in4.1 mm
07:50 PM 65.0°F18.3°C 60.7°F15.9°C 86% 2.1 mph SW3.4 kmh SW 9.0 mph14.5 kmh 30.02 in1016.6 mb 0.00 in0.0 mm 0.00 in0.0 mm 0.16 in4.1 mm
07:55 PM 64.7°F18.2°C 60.7°F15.9°C 87% 3.8 mph SW6.1 kmh SW 9.0 mph14.5 kmh 30.02 in1016.6 mb 0.00 in0.0 mm 0.00 in0.0 mm 0.16 in4.1 mm
08:00 PM 64.5°F18.1°C 60.9°F16.1°C 88% 3.7 mph SW6.0 kmh SW 10.0 mph16.1 kmh 30.02 in1016.6 mb 0.00 in0.0 mm 0.00 in0.0 mm 0.16 in4.1 mm
08:05 PM 64.4°F18.0°C 60.8°F16.0°C 88% 5.1 mph SW8.2 kmh SW 10.0 mph16.1 kmh 30.02 in1016.6 mb 0.00 in0.0 mm 0.00 in0.0 mm 0.16 in4.1 mm
08:10 PM 64.2°F17.9°C 60.6°F15.9°C 88% 4.0 mph SW6.4 kmh SW 10.0 mph16.1 kmh 30.02 in1016.6 mb 0.00 in0.0 mm 0.00 in0.0 mm 0.16 in4.1 mm
08:15 PM 64.0°F17.8°C 60.7°F15.9°C 89% 2.4 mph SW3.9 kmh SW 10.0 mph16.1 kmh 30.02 in1016.6 mb 0.00 in0.0 mm 0.00 in0.0 mm 0.16 in4.1 mm
08:20 PM 63.9°F17.7°C 60.6°F15.9°C 89% 4.3 mph SW6.9 kmh SW 10.0 mph16.1 kmh 30.02 in1016.6 mb 0.00 in0.0 mm 0.00 in0.0 mm 0.16 in4.1 mm
08:25 PM 63.8°F17.7°C 60.5°F15.8°C 89% 3.6 mph SW5.8 kmh SW 10.0 mph16.1 kmh 30.02 in1016.6 mb 0.00 in0.0 mm 0.00 in0.0 mm 0.16 in4.1 mm
08:30 PM 63.6°F17.6°C 60.6°F15.9°C 90% 2.9 mph SW4.7 kmh SW 9.0 mph14.5 kmh 30.02 in1016.6 mb 0.00 in0.0 mm 0.00 in0.0 mm 0.16 in4.1 mm
08:35 PM 63.5°F17.5°C 60.5°F15.8°C 90% 3.0 mph SW4.8 kmh SW 9.0 mph14.5 kmh 30.02 in1016.6 mb 0.00 in0.0 mm 0.00 in0.0 mm 0.16 in4.1 mm
08:40 PM 63.3°F17.4°C 60.3°F15.7°C 90% 2.7 mph SW4.3 kmh SW 9.0 mph14.5 kmh 30.03 in1016.9 mb 0.00 in0.0 mm 0.00 in0.0 mm 0.16 in4.1 mm
08:45 PM 63.3°F17.4°C 60.6°F15.9°C 91% 3.9 mph SW6.3 kmh SW 9.0 mph14.5 kmh 30.03 in1016.9 mb 0.00 in0.0 mm 0.00 in0.0 mm 0.16 in4.1 mm
08:50 PM 63.3°F17.4°C 60.6°F15.9°C 91% 4.0 mph SW6.4 kmh SW 9.0 mph14.5 kmh 30.03 in1016.9 mb 0.00 in0.0 mm 0.00 in0.0 mm 0.16 in4.1 mm
08:55 PM 63.2°F17.3°C 60.5°F15.8°C 91% 3.8 mph SW6.1 kmh SW 9.0 mph14.5 kmh 30.03 in1016.9 mb 0.00 in0.0 mm 0.00 in0.0 mm 0.16 in4.1 mm
09:00 PM 63.1°F17.3°C 60.4°F15.8°C 91% 3.5 mph SW5.6 kmh SW 9.0 mph14.5 kmh 30.03 in1016.9 mb 0.00 in0.0 mm 0.00 in0.0 mm 0.16 in4.1 mm
09:05 PM 63.0°F17.2°C 60.3°F15.7°C 91% 2.9 mph SW4.7 kmh SW 8.0 mph12.9 kmh 30.02 in1016.6 mb 0.00 in0.0 mm 0.00 in0.0 mm 0.16 in4.1 mm
09:10 PM 62.9°F17.2°C 60.2°F15.7°C 91% 2.3 mph SW3.7 kmh SW 8.0 mph12.9 kmh 30.03 in1016.9 mb 0.00 in0.0 mm 0.00 in0.0 mm 0.16 in4.1 mm
09:15 PM 62.8°F17.1°C 60.4°F15.8°C 92% 3.1 mph SW5.0 kmh SW 8.0 mph12.9 kmh 30.03 in1016.9 mb 0.00 in0.0 mm 0.00 in0.0 mm 0.16 in4.1 mm
09:20 PM 62.7°F17.1°C 60.3°F15.7°C 92% 2.2 mph SW3.5 kmh SW 8.0 mph12.9 kmh 30.03 in1016.9 mb 0.00 in0.0 mm 0.00 in0.0 mm 0.16 in4.1 mm
09:25 PM 62.6°F17.0°C 60.2°F15.7°C 92% 2.6 mph SW4.2 kmh SW 6.0 mph9.7 kmh 30.03 in1016.9 mb 0.00 in0.0 mm 0.00 in0.0 mm 0.16 in4.1 mm
09:29 PM 62.6°F17.0°C 60.2°F15.7°C 92% 2.8 mph SW4.5 kmh SW 7.0 mph11.3 kmh 30.03 in1016.9 mb 0.00 in0.0 mm 0.00 in0.0 mm 0.16 in4.1 mm
09:34 PM 62.6°F17.0°C 60.2°F15.7°C 92% 2.6 mph SW4.2 kmh SW 7.0 mph11.3 kmh 30.03 in1016.9 mb 0.00 in0.0 mm 0.00 in0.0 mm 0.16 in4.1 mm
09:39 PM 62.5°F16.9°C 60.1°F15.6°C 92% 2.1 mph SW3.4 kmh SW 7.0 mph11.3 kmh 30.03 in1016.9 mb 0.00 in0.0 mm 0.00 in0.0 mm 0.16 in4.1 mm
09:44 PM 62.4°F16.9°C 60.0°F15.6°C 92% 3.0 mph SW4.8 kmh SW 6.0 mph9.7 kmh 30.04 in1017.3 mb 0.00 in0.0 mm 0.00 in0.0 mm 0.16 in4.1 mm
09:49 PM 62.3°F16.8°C 60.2°F15.7°C 93% 1.8 mph SW2.9 kmh SW 8.0 mph12.9 kmh 30.03 in1016.9 mb 0.00 in0.0 mm 0.00 in0.0 mm 0.16 in4.1 mm
09:54 PM 62.2°F16.8°C 60.1°F15.6°C 93% 3.2 mph SW5.1 kmh SW 8.0 mph12.9 kmh 30.03 in1016.9 mb 0.00 in0.0 mm 0.00 in0.0 mm 0.16 in4.1 mm
09:59 PM 62.2°F16.8°C 60.1°F15.6°C 93% 2.2 mph SW3.5 kmh SW 8.0 mph12.9 kmh 30.04 in1017.3 mb 0.00 in0.0 mm 0.00 in0.0 mm 0.16 in4.1 mm
10:04 PM 62.1°F16.7°C 60.0°F15.6°C 93% 2.2 mph SW3.5 kmh SW 8.0 mph12.9 kmh 30.04 in1017.3 mb 0.00 in0.0 mm 0.00 in0.0 mm 0.16 in4.1 mm
10:09 PM 62.1°F16.7°C 60.0°F15.6°C 93% 2.1 mph SW3.4 kmh SW 7.0 mph11.3 kmh 30.04 in1017.3 mb 0.00 in0.0 mm 0.00 in0.0 mm 0.16 in4.1 mm
10:14 PM 62.1°F16.7°C 60.0°F15.6°C 93% 2.9 mph SW4.7 kmh SW 7.0 mph11.3 kmh 30.04 in1017.3 mb 0.00 in0.0 mm 0.00 in0.0 mm 0.16 in4.1 mm
10:19 PM 62.0°F16.7°C 60.2°F15.7°C 94% 3.0 mph SW4.8 kmh SW 7.0 mph11.3 kmh 30.04 in1017.3 mb 0.00 in0.0 mm 0.00 in0.0 mm 0.16 in4.1 mm
10:24 PM 62.0°F16.7°C 60.2°F15.7°C 94% 2.5 mph SW4.0 kmh SW 7.0 mph11.3 kmh 30.05 in1017.6 mb 0.00 in0.0 mm 0.00 in0.0 mm 0.16 in4.1 mm
10:29 PM 62.0°F16.7°C 60.2°F15.7°C 94% 1.8 mph SW2.9 kmh SW 7.0 mph11.3 kmh 30.05 in1017.6 mb 0.00 in0.0 mm 0.00 in0.0 mm 0.16 in4.1 mm
10:34 PM 62.0°F16.7°C 60.2°F15.7°C 94% 2.2 mph SW3.5 kmh SW 6.0 mph9.7 kmh 30.05 in1017.6 mb 0.00 in0.0 mm 0.00 in0.0 mm 0.16 in4.1 mm
10:39 PM 62.0°F16.7°C 60.2°F15.7°C 94% 2.4 mph SW3.9 kmh SW 6.0 mph9.7 kmh 30.05 in1017.6 mb 0.00 in0.0 mm 0.00 in0.0 mm 0.16 in4.1 mm
10:44 PM 61.9°F16.6°C 60.1°F15.6°C 94% 2.1 mph SW3.4 kmh SW 7.0 mph11.3 kmh 30.05 in1017.6 mb 0.00 in0.0 mm 0.00 in0.0 mm 0.16 in4.1 mm
10:49 PM 61.9°F16.6°C 60.1°F15.6°C 94% 2.3 mph SW3.7 kmh SW 7.0 mph11.3 kmh 30.05 in1017.6 mb 0.00 in0.0 mm 0.00 in0.0 mm 0.16 in4.1 mm
10:54 PM 61.8°F16.6°C 60.0°F15.6°C 94% 2.0 mph SW3.2 kmh SW 7.0 mph11.3 kmh 30.05 in1017.6 mb 0.00 in0.0 mm 0.00 in0.0 mm 0.16 in4.1 mm
10:59 PM 61.8°F16.6°C 60.0°F15.6°C 94% 1.9 mph SW3.1 kmh SW 7.0 mph11.3 kmh 30.06 in1017.9 mb 0.00 in0.0 mm 0.00 in0.0 mm 0.16 in4.1 mm
11:04 PM 61.7°F16.5°C 60.2°F15.7°C 95% 1.9 mph WSW3.1 kmh WSW 5.0 mph8.0 kmh 30.05 in1017.6 mb 0.00 in0.0 mm 0.00 in0.0 mm 0.16 in4.1 mm
11:09 PM 61.7°F16.5°C 60.2°F15.7°C 95% 1.6 mph WSW2.6 kmh WSW 7.0 mph11.3 kmh 30.05 in1017.6 mb 0.00 in0.0 mm 0.00 in0.0 mm 0.16 in4.1 mm
11:14 PM 61.8°F16.6°C 60.3°F15.7°C 95% 1.4 mph W2.3 kmh W 7.0 mph11.3 kmh 30.05 in1017.6 mb 0.00 in0.0 mm 0.00 in0.0 mm 0.16 in4.1 mm
11:19 PM 61.9°F16.6°C 60.4°F15.8°C 95% 2.7 mph W4.3 kmh W 7.0 mph11.3 kmh 30.05 in1017.6 mb 0.00 in0.0 mm 0.00 in0.0 mm 0.16 in4.1 mm
11:24 PM 62.0°F16.7°C 60.5°F15.8°C 95% 1.5 mph WSW2.4 kmh WSW 5.0 mph8.0 kmh 30.05 in1017.6 mb 0.00 in0.0 mm 0.00 in0.0 mm 0.16 in4.1 mm
11:29 PM 62.0°F16.7°C 60.5°F15.8°C 95% 2.0 mph WSW3.2 kmh WSW 5.0 mph8.0 kmh 30.05 in1017.6 mb 0.00 in0.0 mm 0.00 in0.0 mm 0.16 in4.1 mm
11:34 PM 62.0°F16.7°C 60.5°F15.8°C 95% 1.3 mph W2.1 kmh W 5.0 mph8.0 kmh 30.05 in1017.6 mb 0.00 in0.0 mm 0.00 in0.0 mm 0.16 in4.1 mm
11:39 PM 62.0°F16.7°C 60.5°F15.8°C 95% 1.6 mph SW2.6 kmh SW 5.0 mph8.0 kmh 30.05 in1017.6 mb 0.00 in0.0 mm 0.00 in0.0 mm 0.16 in4.1 mm
11:44 PM 61.8°F16.6°C 60.3°F15.7°C 95% 2.0 mph SW3.2 kmh SW 5.0 mph8.0 kmh 30.05 in1017.6 mb 0.00 in0.0 mm 0.00 in0.0 mm 0.16 in4.1 mm
11:49 PM 61.7°F16.5°C 60.2°F15.7°C 95% 1.4 mph SW2.3 kmh SW 5.0 mph8.0 kmh 30.06 in1017.9 mb 0.00 in0.0 mm 0.00 in0.0 mm 0.16 in4.1 mm
11:54 PM 61.6°F16.4°C 60.1°F15.6°C 95% 1.0 mph SW1.6 kmh SW 5.0 mph8.0 kmh 30.05 in1017.6 mb 0.00 in0.0 mm 0.00 in0.0 mm 0.16 in4.1 mm
11:59 PM 61.6°F16.4°C 60.2°F15.7°C 95% 1.9 mph SW3.1 kmh SW 4.0 mph6.4 kmh 30.06 in1017.9 mb 0.00 in0.0 mm 0.00 in0.0 mm 0.16 in4.1 mm